sensor_id;sensor_type;location;lat;lon;timestamp;P1;durP1;ratioP1;P2;durP2;ratioP2
54627;SDS011;40525;55.926;21.066;2022-07-22T00:01:40;7.47;;;4.03;;
54627;SDS011;40525;55.926;21.066;2022-07-22T00:04:07;4.92;;;3.72;;
54627;SDS011;40525;55.926;21.066;2022-07-22T00:06:33;4.90;;;3.62;;
54627;SDS011;40525;55.926;21.066;2022-07-22T00:09:00;4.60;;;3.40;;
54627;SDS011;40525;55.926;21.066;2022-07-22T00:11:26;5.90;;;3.33;;
54627;SDS011;40525;55.926;21.066;2022-07-22T00:13:53;4.05;;;3.35;;
54627;SDS011;40525;55.926;21.066;2022-07-22T00:16:20;6.30;;;3.52;;
54627;SDS011;40525;55.926;21.066;2022-07-22T00:18:46;4.20;;;3.75;;
54627;SDS011;40525;55.926;21.066;2022-07-22T00:21:13;5.17;;;3.30;;
54627;SDS011;40525;55.926;21.066;2022-07-22T00:23:40;5.28;;;3.85;;
54627;SDS011;40525;55.926;21.066;2022-07-22T00:26:06;6.22;;;3.30;;
54627;SDS011;40525;55.926;21.066;2022-07-22T00:28:33;4.60;;;3.25;;
54627;SDS011;40525;55.926;21.066;2022-07-22T00:31:00;5.75;;;3.33;;
54627;SDS011;40525;55.926;21.066;2022-07-22T00:33:27;5.33;;;3.08;;
54627;SDS011;40525;55.926;21.066;2022-07-22T00:35:53;5.42;;;3.30;;
54627;SDS011;40525;55.926;21.066;2022-07-22T00:38:20;5.17;;;3.65;;
54627;SDS011;40525;55.926;21.066;2022-07-22T00:40:46;4.45;;;3.25;;
54627;SDS011;40525;55.926;21.066;2022-07-22T00:43:13;4.75;;;3.50;;
54627;SDS011;40525;55.926;21.066;2022-07-22T00:45:39;7.33;;;3.60;;
54627;SDS011;40525;55.926;21.066;2022-07-22T00:48:06;4.40;;;3.00;;
54627;SDS011;40525;55.926;21.066;2022-07-22T00:50:33;5.37;;;3.30;;
54627;SDS011;40525;55.926;21.066;2022-07-22T00:55:27;8.73;;;3.47;;
54627;SDS011;40525;55.926;21.066;2022-07-22T00:57:54;5.35;;;3.52;;
54627;SDS011;40525;55.926;21.066;2022-07-22T01:00:21;5.08;;;3.37;;
54627;SDS011;40525;55.926;21.066;2022-07-22T01:02:50;5.33;;;3.92;;
54627;SDS011;40525;55.926;21.066;2022-07-22T01:05:16;5.25;;;3.45;;
54627;SDS011;40525;55.926;21.066;2022-07-22T01:07:43;5.33;;;3.42;;
54627;SDS011;40525;55.926;21.066;2022-07-22T01:10:10;6.62;;;3.17;;
54627;SDS011;40525;55.926;21.066;2022-07-22T01:12:36;5.05;;;3.35;;
54627;SDS011;40525;55.926;21.066;2022-07-22T01:15:03;5.42;;;3.52;;
54627;SDS011;40525;55.926;21.066;2022-07-22T01:17:31;6.20;;;3.27;;
54627;SDS011;40525;55.926;21.066;2022-07-22T01:20:02;4.87;;;3.33;;
54627;SDS011;40525;55.926;21.066;2022-07-22T01:22:31;5.97;;;3.35;;
54627;SDS011;40525;55.926;21.066;2022-07-22T01:24:58;6.60;;;3.50;;
54627;SDS011;40525;55.926;21.066;2022-07-22T01:27:25;6.00;;;3.50;;
54627;SDS011;40525;55.926;21.066;2022-07-22T01:29:51;9.80;;;3.27;;
54627;SDS011;40525;55.926;21.066;2022-07-22T01:32:18;5.42;;;3.40;;
54627;SDS011;40525;55.926;21.066;2022-07-22T01:34:44;5.15;;;3.50;;
54627;SDS011;40525;55.926;21.066;2022-07-22T01:37:11;7.35;;;3.50;;
54627;SDS011;40525;55.926;21.066;2022-07-22T01:39:38;7.83;;;3.27;;
54627;SDS011;40525;55.926;21.066;2022-07-22T01:42:04;8.30;;;3.30;;
54627;SDS011;40525;55.926;21.066;2022-07-22T01:44:31;5.87;;;3.70;;
54627;SDS011;40525;55.926;21.066;2022-07-22T01:46:58;8.58;;;3.55;;
54627;SDS011;40525;55.926;21.066;2022-07-22T01:49:25;5.75;;;3.40;;
54627;SDS011;40525;55.926;21.066;2022-07-22T01:51:51;5.85;;;3.60;;
54627;SDS011;40525;55.926;21.066;2022-07-22T01:54:18;6.03;;;3.72;;
54627;SDS011;40525;55.926;21.066;2022-07-22T01:56:45;4.75;;;3.65;;
54627;SDS011;40525;55.926;21.066;2022-07-22T01:59:12;4.33;;;3.42;;
54627;SDS011;40525;55.926;21.066;2022-07-22T02:01:39;7.30;;;3.10;;
54627;SDS011;40525;55.926;21.066;2022-07-22T02:04:06;5.35;;;3.33;;
54627;SDS011;40525;55.926;21.066;2022-07-22T02:06:32;3.98;;;2.98;;
54627;SDS011;40525;55.926;21.066;2022-07-22T02:08:59;9.60;;;3.45;;
54627;SDS011;40525;55.926;21.066;2022-07-22T02:11:46;4.75;;;3.42;;
54627;SDS011;40525;55.926;21.066;2022-07-22T02:14:14;5.37;;;3.35;;
54627;SDS011;40525;55.926;21.066;2022-07-22T02:16:40;6.33;;;3.22;;
54627;SDS011;40525;55.926;21.066;2022-07-22T02:19:09;5.90;;;3.55;;
54627;SDS011;40525;55.926;21.066;2022-07-22T02:21:35;5.40;;;3.55;;
54627;SDS011;40525;55.926;21.066;2022-07-22T02:24:03;6.20;;;3.00;;
54627;SDS011;40525;55.926;21.066;2022-07-22T02:26:30;6.87;;;3.27;;
54627;SDS011;40525;55.926;21.066;2022-07-22T02:28:57;4.72;;;3.17;;
54627;SDS011;40525;55.926;21.066;2022-07-22T02:31:24;6.70;;;3.52;;
54627;SDS011;40525;55.926;21.066;2022-07-22T02:33:50;5.35;;;3.62;;
54627;SDS011;40525;55.926;21.066;2022-07-22T02:36:17;3.80;;;3.35;;
54627;SDS011;40525;55.926;21.066;2022-07-22T02:38:43;8.95;;;3.70;;
54627;SDS011;40525;55.926;21.066;2022-07-22T02:41:10;4.97;;;3.65;;
54627;SDS011;40525;55.926;21.066;2022-07-22T02:43:38;6.17;;;3.55;;
54627;SDS011;40525;55.926;21.066;2022-07-22T02:46:05;4.25;;;3.02;;
54627;SDS011;40525;55.926;21.066;2022-07-22T02:48:32;7.58;;;3.67;;
54627;SDS011;40525;55.926;21.066;2022-07-22T02:51:00;6.95;;;3.98;;
54627;SDS011;40525;55.926;21.066;2022-07-22T02:53:27;7.85;;;3.50;;
54627;SDS011;40525;55.926;21.066;2022-07-22T02:55:56;7.67;;;3.50;;
54627;SDS011;40525;55.926;21.066;2022-07-22T02:58:22;5.97;;;3.15;;
54627;SDS011;40525;55.926;21.066;2022-07-22T03:00:49;5.15;;;3.30;;
54627;SDS011;40525;55.926;21.066;2022-07-22T03:03:16;5.97;;;3.22;;
54627;SDS011;40525;55.926;21.066;2022-07-22T03:05:43;7.58;;;3.60;;
54627;SDS011;40525;55.926;21.066;2022-07-22T03:08:11;5.20;;;3.20;;
54627;SDS011;40525;55.926;21.066;2022-07-22T03:10:38;6.42;;;3.62;;
54627;SDS011;40525;55.926;21.066;2022-07-22T03:13:04;7.75;;;3.80;;
54627;SDS011;40525;55.926;21.066;2022-07-22T03:15:30;6.90;;;3.27;;
54627;SDS011;40525;55.926;21.066;2022-07-22T03:17:57;7.60;;;4.25;;
54627;SDS011;40525;55.926;21.066;2022-07-22T03:20:24;7.55;;;3.25;;
54627;SDS011;40525;55.926;21.066;2022-07-22T03:22:51;8.23;;;3.47;;
54627;SDS011;40525;55.926;21.066;2022-07-22T03:25:17;5.53;;;3.30;;
54627;SDS011;40525;55.926;21.066;2022-07-22T03:27:45;5.58;;;3.55;;
54627;SDS011;40525;55.926;21.066;2022-07-22T03:30:12;6.33;;;3.52;;
54627;SDS011;40525;55.926;21.066;2022-07-22T03:32:38;4.67;;;3.22;;
54627;SDS011;40525;55.926;21.066;2022-07-22T03:35:07;4.85;;;3.67;;
54627;SDS011;40525;55.926;21.066;2022-07-22T03:37:35;5.45;;;3.25;;
54627;SDS011;40525;55.926;21.066;2022-07-22T03:40:02;5.72;;;3.90;;
54627;SDS011;40525;55.926;21.066;2022-07-22T03:42:31;5.47;;;3.77;;
54627;SDS011;40525;55.926;21.066;2022-07-22T03:44:58;6.25;;;3.70;;
54627;SDS011;40525;55.926;21.066;2022-07-22T03:47:25;4.83;;;3.17;;
54627;SDS011;40525;55.926;21.066;2022-07-22T03:49:52;5.33;;;3.62;;
54627;SDS011;40525;55.926;21.066;2022-07-22T03:52:20;5.45;;;3.40;;
54627;SDS011;40525;55.926;21.066;2022-07-22T03:54:47;7.22;;;3.95;;
54627;SDS011;40525;55.926;21.066;2022-07-22T03:57:14;6.37;;;3.80;;
54627;SDS011;40525;55.926;21.066;2022-07-22T03:59:41;7.17;;;4.25;;
54627;SDS011;40525;55.926;21.066;2022-07-22T04:02:08;5.03;;;3.70;;
54627;SDS011;40525;55.926;21.066;2022-07-22T04:04:35;7.17;;;3.95;;
54627;SDS011;40525;55.926;21.066;2022-07-22T04:07:02;6.90;;;3.83;;
54627;SDS011;40525;55.926;21.066;2022-07-22T04:09:30;7.05;;;3.60;;
54627;SDS011;40525;55.926;21.066;2022-07-22T04:11:57;5.50;;;3.83;;
54627;SDS011;40525;55.926;21.066;2022-07-22T04:14:24;7.45;;;3.67;;
54627;SDS011;40525;55.926;21.066;2022-07-22T04:16:53;6.25;;;3.60;;
54627;SDS011;40525;55.926;21.066;2022-07-22T04:19:19;5.37;;;3.40;;
54627;SDS011;40525;55.926;21.066;2022-07-22T04:21:53;6.83;;;4.22;;
54627;SDS011;40525;55.926;21.066;2022-07-22T04:24:21;7.12;;;3.85;;
54627;SDS011;40525;55.926;21.066;2022-07-22T04:26:48;7.75;;;3.72;;
54627;SDS011;40525;55.926;21.066;2022-07-22T04:29:15;7.20;;;3.92;;
54627;SDS011;40525;55.926;21.066;2022-07-22T04:31:42;5.20;;;4.08;;
54627;SDS011;40525;55.926;21.066;2022-07-22T04:34:10;8.78;;;3.70;;
54627;SDS011;40525;55.926;21.066;2022-07-22T04:36:37;9.78;;;3.47;;
54627;SDS011;40525;55.926;21.066;2022-07-22T04:39:03;6.10;;;3.30;;
54627;SDS011;40525;55.926;21.066;2022-07-22T04:41:31;6.87;;;3.47;;
54627;SDS011;40525;55.926;21.066;2022-07-22T04:43:58;5.55;;;3.42;;
54627;SDS011;40525;55.926;21.066;2022-07-22T04:46:27;9.30;;;3.87;;
54627;SDS011;40525;55.926;21.066;2022-07-22T04:48:54;7.90;;;3.02;;
54627;SDS011;40525;55.926;21.066;2022-07-22T04:51:20;7.35;;;3.40;;
54627;SDS011;40525;55.926;21.066;2022-07-22T04:53:48;5.85;;;3.27;;
54627;SDS011;40525;55.926;21.066;2022-07-22T04:56:17;5.60;;;3.58;;
54627;SDS011;40525;55.926;21.066;2022-07-22T04:58:43;6.25;;;4.03;;
54627;SDS011;40525;55.926;21.066;2022-07-22T05:01:10;5.90;;;3.35;;
54627;SDS011;40525;55.926;21.066;2022-07-22T05:03:37;5.67;;;3.85;;
54627;SDS011;40525;55.926;21.066;2022-07-22T05:06:05;6.37;;;3.87;;
54627;SDS011;40525;55.926;21.066;2022-07-22T05:08:34;6.60;;;3.80;;
54627;SDS011;40525;55.926;21.066;2022-07-22T05:11:01;8.93;;;3.52;;
54627;SDS011;40525;55.926;21.066;2022-07-22T05:13:28;7.10;;;3.50;;
54627;SDS011;40525;55.926;21.066;2022-07-22T05:15:54;6.65;;;3.98;;
54627;SDS011;40525;55.926;21.066;2022-07-22T05:18:21;8.38;;;3.60;;
54627;SDS011;40525;55.926;21.066;2022-07-22T05:20:47;6.75;;;3.90;;
54627;SDS011;40525;55.926;21.066;2022-07-22T05:23:14;10.15;;;3.55;;
54627;SDS011;40525;55.926;21.066;2022-07-22T05:25:41;7.58;;;3.30;;
54627;SDS011;40525;55.926;21.066;2022-07-22T05:28:08;6.00;;;3.02;;
54627;SDS011;40525;55.926;21.066;2022-07-22T05:30:36;6.92;;;3.42;;
54627;SDS011;40525;55.926;21.066;2022-07-22T05:33:03;5.70;;;3.15;;
54627;SDS011;40525;55.926;21.066;2022-07-22T05:35:35;4.53;;;2.87;;
54627;SDS011;40525;55.926;21.066;2022-07-22T05:38:01;4.03;;;2.65;;
54627;SDS011;40525;55.926;21.066;2022-07-22T05:40:29;3.45;;;2.90;;
54627;SDS011;40525;55.926;21.066;2022-07-22T05:42:55;6.12;;;3.10;;
54627;SDS011;40525;55.926;21.066;2022-07-22T05:45:22;4.80;;;2.90;;
54627;SDS011;40525;55.926;21.066;2022-07-22T05:47:49;5.33;;;2.87;;
54627;SDS011;40525;55.926;21.066;2022-07-22T05:50:16;7.12;;;3.33;;
54627;SDS011;40525;55.926;21.066;2022-07-22T05:52:42;7.05;;;3.15;;
54627;SDS011;40525;55.926;21.066;2022-07-22T05:55:09;5.05;;;3.20;;
54627;SDS011;40525;55.926;21.066;2022-07-22T05:57:36;4.40;;;3.20;;
54627;SDS011;40525;55.926;21.066;2022-07-22T06:00:04;9.93;;;3.30;;
54627;SDS011;40525;55.926;21.066;2022-07-22T06:02:33;5.90;;;3.02;;
54627;SDS011;40525;55.926;21.066;2022-07-22T06:05:00;4.08;;;3.00;;
54627;SDS011;40525;55.926;21.066;2022-07-22T06:07:28;7.80;;;5.60;;
54627;SDS011;40525;55.926;21.066;2022-07-22T06:09:56;8.90;;;3.83;;
54627;SDS011;40525;55.926;21.066;2022-07-22T06:12:23;5.42;;;3.25;;
54627;SDS011;40525;55.926;21.066;2022-07-22T06:14:50;4.62;;;3.20;;
54627;SDS011;40525;55.926;21.066;2022-07-22T06:17:18;6.17;;;2.85;;
54627;SDS011;40525;55.926;21.066;2022-07-22T06:19:45;4.92;;;2.87;;
54627;SDS011;40525;55.926;21.066;2022-07-22T06:22:11;7.25;;;4.85;;
54627;SDS011;40525;55.926;21.066;2022-07-22T06:24:38;8.73;;;3.20;;
54627;SDS011;40525;55.926;21.066;2022-07-22T06:27:06;5.45;;;2.65;;
54627;SDS011;40525;55.926;21.066;2022-07-22T06:29:32;6.30;;;2.90;;
54627;SDS011;40525;55.926;21.066;2022-07-22T06:31:59;7.35;;;3.00;;
54627;SDS011;40525;55.926;21.066;2022-07-22T06:34:26;4.90;;;3.10;;
54627;SDS011;40525;55.926;21.066;2022-07-22T06:36:55;6.33;;;3.08;;
54627;SDS011;40525;55.926;21.066;2022-07-22T06:39:22;3.80;;;2.87;;
54627;SDS011;40525;55.926;21.066;2022-07-22T06:41:50;4.90;;;2.75;;
54627;SDS011;40525;55.926;21.066;2022-07-22T06:44:19;4.87;;;2.58;;
54627;SDS011;40525;55.926;21.066;2022-07-22T06:46:59;5.53;;;3.10;;
54627;SDS011;40525;55.926;21.066;2022-07-22T06:49:26;6.97;;;4.92;;
54627;SDS011;40525;55.926;21.066;2022-07-22T06:51:53;4.30;;;3.60;;
54627;SDS011;40525;55.926;21.066;2022-07-22T06:54:20;6.05;;;3.22;;
54627;SDS011;40525;55.926;21.066;2022-07-22T06:56:48;5.42;;;2.80;;
54627;SDS011;40525;55.926;21.066;2022-07-22T06:59:16;5.58;;;3.02;;
54627;SDS011;40525;55.926;21.066;2022-07-22T07:01:43;19.37;;;13.98;;
54627;SDS011;40525;55.926;21.066;2022-07-22T07:04:10;8.65;;;5.87;;
54627;SDS011;40525;55.926;21.066;2022-07-22T07:06:36;5.85;;;3.47;;
54627;SDS011;40525;55.926;21.066;2022-07-22T07:09:05;4.25;;;3.40;;
54627;SDS011;40525;55.926;21.066;2022-07-22T07:11:32;7.75;;;3.60;;
54627;SDS011;40525;55.926;21.066;2022-07-22T07:13:59;5.65;;;3.20;;
54627;SDS011;40525;55.926;21.066;2022-07-22T07:16:26;4.78;;;3.20;;
54627;SDS011;40525;55.926;21.066;2022-07-22T07:18:52;4.62;;;3.47;;
54627;SDS011;40525;55.926;21.066;2022-07-22T07:21:19;8.30;;;6.10;;
54627;SDS011;40525;55.926;21.066;2022-07-22T07:23:46;5.55;;;3.00;;
54627;SDS011;40525;55.926;21.066;2022-07-22T07:26:13;5.87;;;3.15;;
54627;SDS011;40525;55.926;21.066;2022-07-22T07:28:40;3.98;;;3.00;;
54627;SDS011;40525;55.926;21.066;2022-07-22T07:31:08;4.25;;;2.80;;
54627;SDS011;40525;55.926;21.066;2022-07-22T07:33:36;5.17;;;3.08;;
54627;SDS011;40525;55.926;21.066;2022-07-22T07:36:02;4.72;;;3.12;;
54627;SDS011;40525;55.926;21.066;2022-07-22T07:38:32;6.22;;;3.08;;
54627;SDS011;40525;55.926;21.066;2022-07-22T07:41:01;4.85;;;2.87;;
54627;SDS011;40525;55.926;21.066;2022-07-22T07:43:29;6.22;;;3.22;;
54627;SDS011;40525;55.926;21.066;2022-07-22T07:45:55;4.15;;;3.10;;
54627;SDS011;40525;55.926;21.066;2022-07-22T07:48:22;6.92;;;4.62;;
54627;SDS011;40525;55.926;21.066;2022-07-22T07:50:49;5.53;;;4.15;;
54627;SDS011;40525;55.926;21.066;2022-07-22T07:53:16;4.72;;;3.62;;
54627;SDS011;40525;55.926;21.066;2022-07-22T07:55:44;7.60;;;3.83;;
54627;SDS011;40525;55.926;21.066;2022-07-22T07:58:11;5.45;;;3.40;;
54627;SDS011;40525;55.926;21.066;2022-07-22T08:00:39;5.55;;;3.60;;
54627;SDS011;40525;55.926;21.066;2022-07-22T08:03:09;5.58;;;3.25;;
54627;SDS011;40525;55.926;21.066;2022-07-22T08:05:37;5.03;;;3.40;;
54627;SDS011;40525;55.926;21.066;2022-07-22T08:08:09;6.75;;;4.22;;
54627;SDS011;40525;55.926;21.066;2022-07-22T08:10:36;5.00;;;3.62;;
54627;SDS011;40525;55.926;21.066;2022-07-22T08:13:04;4.40;;;3.52;;
54627;SDS011;40525;55.926;21.066;2022-07-22T08:15:36;5.78;;;3.62;;
54627;SDS011;40525;55.926;21.066;2022-07-22T08:18:06;5.95;;;3.40;;
54627;SDS011;40525;55.926;21.066;2022-07-22T08:20:32;6.67;;;3.80;;
54627;SDS011;40525;55.926;21.066;2022-07-22T08:22:59;4.87;;;3.60;;
54627;SDS011;40525;55.926;21.066;2022-07-22T08:25:27;4.35;;;3.27;;
54627;SDS011;40525;55.926;21.066;2022-07-22T08:27:54;6.05;;;3.00;;
54627;SDS011;40525;55.926;21.066;2022-07-22T08:30:22;5.83;;;4.15;;
54627;SDS011;40525;55.926;21.066;2022-07-22T08:32:51;7.62;;;3.92;;
54627;SDS011;40525;55.926;21.066;2022-07-22T08:35:18;5.67;;;4.33;;
54627;SDS011;40525;55.926;21.066;2022-07-22T08:37:44;7.60;;;4.28;;
54627;SDS011;40525;55.926;21.066;2022-07-22T08:40:14;7.28;;;4.72;;
54627;SDS011;40525;55.926;21.066;2022-07-22T08:42:43;6.70;;;4.45;;
54627;SDS011;40525;55.926;21.066;2022-07-22T08:45:14;6.15;;;4.72;;
54627;SDS011;40525;55.926;21.066;2022-07-22T08:47:43;8.80;;;4.08;;
54627;SDS011;40525;55.926;21.066;2022-07-22T08:52:45;6.53;;;4.03;;
54627;SDS011;40525;55.926;21.066;2022-07-22T08:55:11;4.62;;;4.03;;
54627;SDS011;40525;55.926;21.066;2022-07-22T08:57:43;9.18;;;6.53;;
54627;SDS011;40525;55.926;21.066;2022-07-22T09:00:21;8.43;;;6.55;;
54627;SDS011;40525;55.926;21.066;2022-07-22T09:02:46;9.18;;;5.58;;
54627;SDS011;40525;55.926;21.066;2022-07-22T09:05:14;7.75;;;4.78;;
54627;SDS011;40525;55.926;21.066;2022-07-22T09:07:43;7.37;;;5.30;;
54627;SDS011;40525;55.926;21.066;2022-07-22T09:10:15;8.45;;;5.17;;
54627;SDS011;40525;55.926;21.066;2022-07-22T09:12:56;5.65;;;5.08;;
54627;SDS011;40525;55.926;21.066;2022-07-22T09:15:50;9.53;;;5.78;;
54627;SDS011;40525;55.926;21.066;2022-07-22T09:18:49;9.18;;;5.85;;
54627;SDS011;40525;55.926;21.066;2022-07-22T09:21:37;6.60;;;5.90;;
54627;SDS011;40525;55.926;21.066;2022-07-22T09:24:32;7.70;;;6.05;;
54627;SDS011;40525;55.926;21.066;2022-07-22T09:26:55;7.70;;;6.30;;
54627;SDS011;40525;55.926;21.066;2022-07-22T09:29:27;8.73;;;6.10;;
54627;SDS011;40525;55.926;21.066;2022-07-22T09:31:58;9.68;;;6.92;;
54627;SDS011;40525;55.926;21.066;2022-07-22T09:34:31;7.87;;;6.05;;
54627;SDS011;40525;55.926;21.066;2022-07-22T09:37:07;6.15;;;5.53;;
54627;SDS011;40525;55.926;21.066;2022-07-22T09:39:34;6.03;;;5.42;;
54627;SDS011;40525;55.926;21.066;2022-07-22T09:42:02;7.10;;;5.67;;
54627;SDS011;40525;55.926;21.066;2022-07-22T09:44:33;9.53;;;6.03;;
54627;SDS011;40525;55.926;21.066;2022-07-22T09:47:02;8.63;;;5.95;;
54627;SDS011;40525;55.926;21.066;2022-07-22T09:49:42;6.70;;;4.90;;
54627;SDS011;40525;55.926;21.066;2022-07-22T09:52:27;7.95;;;5.25;;
54627;SDS011;40525;55.926;21.066;2022-07-22T09:55:01;4.90;;;4.42;;
54627;SDS011;40525;55.926;21.066;2022-07-22T09:57:28;5.62;;;4.97;;
54627;SDS011;40525;55.926;21.066;2022-07-22T09:59:56;6.22;;;5.55;;
54627;SDS011;40525;55.926;21.066;2022-07-22T10:02:24;6.83;;;4.65;;
54627;SDS011;40525;55.926;21.066;2022-07-22T10:04:53;7.08;;;4.95;;
54627;SDS011;40525;55.926;21.066;2022-07-22T10:07:22;8.58;;;5.33;;
54627;SDS011;40525;55.926;21.066;2022-07-22T10:09:52;6.12;;;5.10;;
54627;SDS011;40525;55.926;21.066;2022-07-22T10:12:19;7.20;;;5.15;;
54627;SDS011;40525;55.926;21.066;2022-07-22T10:14:47;6.87;;;5.33;;
54627;SDS011;40525;55.926;21.066;2022-07-22T10:17:15;6.42;;;5.33;;
54627;SDS011;40525;55.926;21.066;2022-07-22T10:19:43;6.55;;;5.80;;
54627;SDS011;40525;55.926;21.066;2022-07-22T10:25:09;7.37;;;6.47;;
54627;SDS011;40525;55.926;21.066;2022-07-22T10:30:32;7.35;;;6.60;;
54627;SDS011;40525;55.926;21.066;2022-07-22T10:33:14;7.17;;;6.47;;
54627;SDS011;40525;55.926;21.066;2022-07-22T10:35:58;9.10;;;6.87;;
54627;SDS011;40525;55.926;21.066;2022-07-22T10:41:01;8.70;;;7.00;;
54627;SDS011;40525;55.926;21.066;2022-07-22T10:43:32;7.58;;;6.22;;
54627;SDS011;40525;55.926;21.066;2022-07-22T10:46:12;8.45;;;6.67;;
54627;SDS011;40525;55.926;21.066;2022-07-22T10:51:14;6.40;;;5.80;;
54627;SDS011;40525;55.926;21.066;2022-07-22T10:53:44;6.15;;;5.00;;
54627;SDS011;40525;55.926;21.066;2022-07-22T10:56:30;7.25;;;4.92;;
54627;SDS011;40525;55.926;21.066;2022-07-22T11:01:39;6.37;;;4.33;;
54627;SDS011;40525;55.926;21.066;2022-07-22T11:04:19;6.10;;;4.37;;
54627;SDS011;40525;55.926;21.066;2022-07-22T11:06:51;4.95;;;4.28;;
54627;SDS011;40525;55.926;21.066;2022-07-22T11:09:20;5.80;;;4.15;;
54627;SDS011;40525;55.926;21.066;2022-07-22T11:11:50;4.55;;;4.00;;
54627;SDS011;40525;55.926;21.066;2022-07-22T11:14:23;6.78;;;4.42;;
54627;SDS011;40525;55.926;21.066;2022-07-22T11:17:03;4.60;;;4.13;;
54627;SDS011;40525;55.926;21.066;2022-07-22T11:19:28;5.28;;;3.90;;
54627;SDS011;40525;55.926;21.066;2022-07-22T11:21:58;7.05;;;4.45;;
54627;SDS011;40525;55.926;21.066;2022-07-22T11:24:31;5.45;;;4.37;;
54627;SDS011;40525;55.926;21.066;2022-07-22T11:26:59;5.78;;;4.25;;
54627;SDS011;40525;55.926;21.066;2022-07-22T11:29:27;4.53;;;3.67;;
54627;SDS011;40525;55.926;21.066;2022-07-22T11:32:00;6.35;;;4.15;;
54627;SDS011;40525;55.926;21.066;2022-07-22T11:34:29;4.33;;;3.92;;
54627;SDS011;40525;55.926;21.066;2022-07-22T11:36:56;4.62;;;4.10;;
54627;SDS011;40525;55.926;21.066;2022-07-22T11:39:26;5.78;;;3.95;;
54627;SDS011;40525;55.926;21.066;2022-07-22T11:41:56;6.55;;;3.70;;
54627;SDS011;40525;55.926;21.066;2022-07-22T11:44:28;4.10;;;3.70;;
54627;SDS011;40525;55.926;21.066;2022-07-22T11:46:57;4.50;;;4.10;;
54627;SDS011;40525;55.926;21.066;2022-07-22T11:49:25;4.42;;;3.55;;
54627;SDS011;40525;55.926;21.066;2022-07-22T11:51:55;4.90;;;3.80;;
54627;SDS011;40525;55.926;21.066;2022-07-22T11:54:22;5.58;;;3.52;;
54627;SDS011;40525;55.926;21.066;2022-07-22T11:56:49;4.50;;;3.75;;
54627;SDS011;40525;55.926;21.066;2022-07-22T11:59:16;3.80;;;3.40;;
54627;SDS011;40525;55.926;21.066;2022-07-22T12:01:44;4.53;;;3.37;;
54627;SDS011;40525;55.926;21.066;2022-07-22T12:04:14;3.58;;;3.02;;
54627;SDS011;40525;55.926;21.066;2022-07-22T12:06:46;4.47;;;3.15;;
54627;SDS011;40525;55.926;21.066;2022-07-22T12:09:14;6.75;;;3.42;;
54627;SDS011;40525;55.926;21.066;2022-07-22T12:11:44;4.08;;;3.60;;
54627;SDS011;40525;55.926;21.066;2022-07-22T12:14:14;3.50;;;3.20;;
54627;SDS011;40525;55.926;21.066;2022-07-22T12:19:32;3.85;;;3.47;;
54627;SDS011;40525;55.926;21.066;2022-07-22T12:22:07;4.92;;;3.40;;
54627;SDS011;40525;55.926;21.066;2022-07-22T12:24:42;3.45;;;3.12;;
54627;SDS011;40525;55.926;21.066;2022-07-22T12:27:15;3.65;;;3.27;;
54627;SDS011;40525;55.926;21.066;2022-07-22T12:29:44;5.20;;;3.45;;
54627;SDS011;40525;55.926;21.066;2022-07-22T12:37:28;3.65;;;3.30;;
54627;SDS011;40525;55.926;21.066;2022-07-22T12:40:09;3.58;;;3.27;;
54627;SDS011;40525;55.926;21.066;2022-07-22T12:42:41;3.95;;;3.58;;
54627;SDS011;40525;55.926;21.066;2022-07-22T12:45:11;4.03;;;3.67;;
54627;SDS011;40525;55.926;21.066;2022-07-22T12:47:47;3.50;;;3.20;;
54627;SDS011;40525;55.926;21.066;2022-07-22T12:53:11;5.15;;;3.10;;
54627;SDS011;40525;55.926;21.066;2022-07-22T12:55:43;3.20;;;2.90;;
54627;SDS011;40525;55.926;21.066;2022-07-22T12:58:13;3.90;;;3.00;;
54627;SDS011;40525;55.926;21.066;2022-07-22T13:00:42;3.62;;;3.20;;
54627;SDS011;40525;55.926;21.066;2022-07-22T13:03:12;3.62;;;3.33;;
54627;SDS011;40525;55.926;21.066;2022-07-22T13:05:39;3.37;;;3.17;;
54627;SDS011;40525;55.926;21.066;2022-07-22T13:08:06;4.78;;;3.10;;
54627;SDS011;40525;55.926;21.066;2022-07-22T13:10:33;4.60;;;3.40;;
54627;SDS011;40525;55.926;21.066;2022-07-22T13:13:00;3.10;;;2.80;;
54627;SDS011;40525;55.926;21.066;2022-07-22T13:15:26;4.55;;;4.10;;
54627;SDS011;40525;55.926;21.066;2022-07-22T13:17:53;4.72;;;3.27;;
54627;SDS011;40525;55.926;21.066;2022-07-22T13:20:19;6.20;;;4.12;;
54627;SDS011;40525;55.926;21.066;2022-07-22T13:22:46;4.28;;;3.40;;
54627;SDS011;40525;55.926;21.066;2022-07-22T13:25:14;4.28;;;3.62;;
54627;SDS011;40525;55.926;21.066;2022-07-22T13:27:40;4.00;;;3.42;;
54627;SDS011;40525;55.926;21.066;2022-07-22T13:30:07;5.42;;;3.50;;
54627;SDS011;40525;55.926;21.066;2022-07-22T13:32:35;5.83;;;4.12;;
54627;SDS011;40525;55.926;21.066;2022-07-22T13:35:02;5.75;;;4.00;;
54627;SDS011;40525;55.926;21.066;2022-07-22T13:37:30;3.98;;;3.47;;
54627;SDS011;40525;55.926;21.066;2022-07-22T13:39:57;4.90;;;4.17;;
54627;SDS011;40525;55.926;21.066;2022-07-22T13:42:24;3.80;;;3.47;;
54627;SDS011;40525;55.926;21.066;2022-07-22T13:44:51;5.92;;;4.00;;
54627;SDS011;40525;55.926;21.066;2022-07-22T13:47:19;5.03;;;4.35;;
54627;SDS011;40525;55.926;21.066;2022-07-22T13:49:46;4.80;;;3.92;;
54627;SDS011;40525;55.926;21.066;2022-07-22T13:52:14;6.50;;;4.53;;
54627;SDS011;40525;55.926;21.066;2022-07-22T13:54:42;5.85;;;4.33;;
54627;SDS011;40525;55.926;21.066;2022-07-22T13:57:08;5.85;;;4.25;;
54627;SDS011;40525;55.926;21.066;2022-07-22T13:59:35;5.15;;;4.03;;
54627;SDS011;40525;55.926;21.066;2022-07-22T14:02:03;5.75;;;4.37;;
54627;SDS011;40525;55.926;21.066;2022-07-22T14:04:31;6.08;;;4.40;;
54627;SDS011;40525;55.926;21.066;2022-07-22T14:06:57;7.90;;;4.62;;
54627;SDS011;40525;55.926;21.066;2022-07-22T14:09:25;4.40;;;3.92;;
54627;SDS011;40525;55.926;21.066;2022-07-22T14:11:51;7.35;;;4.50;;
54627;SDS011;40525;55.926;21.066;2022-07-22T14:14:18;5.50;;;4.08;;
54627;SDS011;40525;55.926;21.066;2022-07-22T14:16:44;5.33;;;4.67;;
54627;SDS011;40525;55.926;21.066;2022-07-22T14:19:12;5.62;;;4.30;;
54627;SDS011;40525;55.926;21.066;2022-07-22T14:21:41;5.72;;;4.17;;
54627;SDS011;40525;55.926;21.066;2022-07-22T14:24:11;5.33;;;4.22;;
54627;SDS011;40525;55.926;21.066;2022-07-22T14:26:38;6.62;;;4.80;;
54627;SDS011;40525;55.926;21.066;2022-07-22T14:29:05;5.72;;;4.40;;
54627;SDS011;40525;55.926;21.066;2022-07-22T14:31:32;5.10;;;4.33;;
54627;SDS011;40525;55.926;21.066;2022-07-22T14:33:59;4.85;;;4.25;;
54627;SDS011;40525;55.926;21.066;2022-07-22T14:36:26;6.00;;;4.58;;
54627;SDS011;40525;55.926;21.066;2022-07-22T14:38:53;5.60;;;4.37;;
54627;SDS011;40525;55.926;21.066;2022-07-22T14:41:20;5.33;;;4.17;;
54627;SDS011;40525;55.926;21.066;2022-07-22T14:43:48;5.80;;;4.60;;
54627;SDS011;40525;55.926;21.066;2022-07-22T14:46:14;6.42;;;4.83;;
54627;SDS011;40525;55.926;21.066;2022-07-22T14:48:41;6.35;;;4.90;;
54627;SDS011;40525;55.926;21.066;2022-07-22T14:51:07;6.58;;;5.10;;
54627;SDS011;40525;55.926;21.066;2022-07-22T14:53:34;5.22;;;4.62;;
54627;SDS011;40525;55.926;21.066;2022-07-22T14:56:00;6.58;;;4.67;;
54627;SDS011;40525;55.926;21.066;2022-07-22T14:58:27;5.92;;;4.90;;
54627;SDS011;40525;55.926;21.066;2022-07-22T15:00:53;5.75;;;4.40;;
54627;SDS011;40525;55.926;21.066;2022-07-22T15:03:20;5.75;;;5.15;;
54627;SDS011;40525;55.926;21.066;2022-07-22T15:05:47;5.15;;;4.65;;
54627;SDS011;40525;55.926;21.066;2022-07-22T15:08:13;5.58;;;4.90;;
54627;SDS011;40525;55.926;21.066;2022-07-22T15:10:40;5.80;;;5.20;;